Weather at Logan International Airport

Public forecast

Using degrees Fahrenheit for public forecast. Weather courtesy of forecast.io.

Current aviation weather report (METAR) for Logan International Airport

Retrieved 2021/10/19 18:54 UTC (1 hour ago):

KBOS 191854Z 28015G24KT 10SM FEW050 FEW140 17/01 A2976 RMK AO2 SLP078 T01670006

Aviation forecast (TAF) for Logan International Airport

Retrieved 2021/10/19 18:27 UTC (2 hours ago):

TAF KBOS 191720Z 1918/2024 29014G23KT P6SM FEW045 FM200200 26008KT P6SM SKC FM201500 29010KT P6SM SCT250